Brighton, Alabama
Current Conditions -  °F | °C
As of 3:53 AM on Thursday 29 Jan 2015 (Local Time) from KBHM Reporting Station
Few Clouds Few Clouds  
Wind Chill: 42°   Ceiling: Unl
Heat Index: 46°   Visibility: 10mi
Dew Point: 29°   Wind: 7mph
Humidity: 51%   Direction: 160°SSE
Pressure: 30.24"   Gusts: NA
Location:  33.4077°N, 86.9494°W
Report Text: KBHM 290953Z 16006KT 10SM FEW250 08/M02 A3024 RMK AO2 SLP238 T00781017
Loading
Personal Weather Stations






























Interactive Weather Map New forecast layout! Learn more

10-Day Weather Forecast

Advertisements
Track Severe Weather on mobile